Time;durP1;ratioP1;P1;durP2;ratioP2;P2;SDS_P1;SDS_P2;PMS_P1;PMS_P2;Temp;Humidity;BMP_temperature;BMP_pressure;BME280_temperature;BME280_humidity;BME280_pressure;Samples;Min_cycle;Max_cycle;Signal;HPM_P1;HPM_P2
2021/10/10 00:00:03;;;;;;;20.25;16.08;;;;;;;;;;2075563;28;20211;-52
2021/10/10 00:01:12;;;;;;;20.55;16.30;;;;;;;;;;2078639;28;20193;-51
2021/10/10 00:02:12;;;;;;;20.43;16.63;;;;;;;;;;2081296;28;20196;-53
2021/10/10 00:03:12;;;;;;;18.47;15.23;;;;;;;;;;2077149;28;20184;-51
2021/10/10 00:04:12;;;;;;;19.92;15.73;;;;;;;;;;2080593;28;20648;-52
2021/10/10 00:05:13;;;;;;;19.40;15.98;;;;;;;;;;2071199;28;20204;-50
2021/10/10 00:06:13;;;;;;;17.52;14.57;;;;;;;;;;2064513;28;20197;-50
2021/10/10 00:07:13;;;;;;;19.90;15.05;;;;;;;;;;2063960;28;20263;-54
2021/10/10 00:08:14;;;;;;;19.75;15.07;;;;;;;;;;2060659;28;20673;-53
2021/10/10 00:09:14;;;;;;;18.13;16.20;;;;;;;;;;2066796;28;20178;-51
2021/10/10 00:10:15;;;;;;;18.57;15.47;;;;;;;;;;2071402;28;20207;-54
2021/10/10 00:11:15;;;;;;;20.90;15.38;;;;;;;;;;2073460;28;20173;-50
2021/10/10 00:12:15;;;;;;;18.75;15.50;;;;;;;;;;2077412;28;20196;-52
2021/10/10 00:13:16;;;;;;;18.07;14.87;;;;;;;;;;2080059;28;20172;-49
2021/10/10 00:14:16;;;;;;;18.30;15.53;;;;;;;;;;2079321;28;20181;-51
2021/10/10 00:15:16;;;;;;;17.17;14.17;;;;;;;;;;2080221;28;20258;-50
2021/10/10 00:16:17;;;;;;;15.93;14.25;;;;;;;;;;2065981;28;20173;-49
2021/10/10 00:17:17;;;;;;;22.33;15.20;;;;;;;;;;2068970;28;20621;-49
2021/10/10 00:18:17;;;;;;;15.63;13.93;;;;;;;;;;2073441;28;20248;-50
2021/10/10 00:19:17;;;;;;;19.33;15.93;;;;;;;;;;2080223;28;20184;-49
2021/10/10 00:20:18;;;;;;;17.60;15.32;;;;;;;;;;2075331;28;20229;-49
2021/10/10 00:21:18;;;;;;;21.07;15.13;;;;;;;;;;2078904;28;20176;-52
2021/10/10 00:22:19;;;;;;;19.00;15.57;;;;;;;;;;2070934;28;20201;-50
2021/10/10 00:23:19;;;;;;;16.98;14.93;;;;;;;;;;2067010;28;20178;-50
2021/10/10 00:24:19;;;;;;;18.17;15.50;;;;;;;;;;2080982;28;20681;-51
2021/10/10 00:25:19;;;;;;;16.40;14.80;;;;;;;;;;2077139;28;20172;-52
2021/10/10 00:26:20;;;;;;;17.57;15.00;;;;;;;;;;2073094;28;20181;-49
2021/10/10 00:27:21;;;;;;;17.65;14.63;;;;;;;;;;2073334;28;20204;-50
2021/10/10 00:28:21;;;;;;;19.23;15.07;;;;;;;;;;2073709;28;20177;-53
2021/10/10 00:29:22;;;;;;;16.90;15.13;;;;;;;;;;2070055;28;20681;-53
2021/10/10 00:30:22;;;;;;;16.13;14.43;;;;;;;;;;2082352;28;20498;-54
2021/10/10 00:31:23;;;;;;;16.55;14.77;;;;;;;;;;2078685;28;20179;-54
2021/10/10 00:32:23;;;;;;;16.38;14.63;;;;;;;;;;2079878;28;20201;-53
2021/10/10 00:33:25;;;;;;;17.80;15.03;;;;;;;;;;2080226;28;20204;-53
2021/10/10 00:34:25;;;;;;;19.13;15.65;;;;;;;;;;2081137;28;20252;-50
2021/10/10 00:35:25;;;;;;;19.55;15.55;;;;;;;;;;2085695;28;20183;-51
2021/10/10 00:36:25;;;;;;;16.13;14.50;;;;;;;;;;2085745;28;20156;-54
2021/10/10 00:37:26;;;;;;;18.13;15.70;;;;;;;;;;2085228;28;20180;-53
2021/10/10 00:38:26;;;;;;;17.02;14.77;;;;;;;;;;2085304;28;20183;-51
2021/10/10 00:39:26;;;;;;;17.88;15.23;;;;;;;;;;2084444;28;20200;-55
2021/10/10 00:40:27;;;;;;;18.83;15.87;;;;;;;;;;2085251;28;20180;-50
2021/10/10 00:41:27;;;;;;;20.10;14.63;;;;;;;;;;2079723;28;20174;-49
2021/10/10 00:42:27;;;;;;;21.47;16.80;;;;;;;;;;2073866;28;20212;-50
2021/10/10 00:43:28;;;;;;;15.90;13.93;;;;;;;;;;2076003;28;20267;-53
2021/10/10 00:44:28;;;;;;;17.40;15.60;;;;;;;;;;2084595;28;20191;-50
2021/10/10 00:45:28;;;;;;;19.13;15.87;;;;;;;;;;2074743;28;20597;-51
2021/10/10 00:46:28;;;;;;;18.20;15.17;;;;;;;;;;2072103;28;20201;-50
2021/10/10 00:47:29;;;;;;;18.70;14.80;;;;;;;;;;2074100;28;20271;-50
2021/10/10 00:48:29;;;;;;;18.17;14.90;;;;;;;;;;2069497;28;20178;-52
2021/10/10 00:49:29;;;;;;;19.77;15.67;;;;;;;;;;2066800;28;20177;-51
2021/10/10 00:50:30;;;;;;;19.93;16.03;;;;;;;;;;2075265;28;20296;-51
2021/10/10 00:51:35;;;;;;;18.77;16.03;;;;;;;;;;2083682;28;20248;-51
2021/10/10 00:52:40;;;;;;;17.33;15.50;;;;;;;;;;2076690;28;20246;-50
2021/10/10 00:53:41;;;;;;;22.00;15.17;;;;;;;;;;2072668;28;20216;-51
2021/10/10 00:54:46;;;;;;;21.40;15.90;;;;;;;;;;2080415;28;20212;-50
2021/10/10 00:55:48;;;;;;;16.33;14.37;;;;;;;;;;2087439;28;20206;-51
2021/10/10 00:56:48;;;;;;;16.37;14.67;;;;;;;;;;2080950;28;20672;-52
2021/10/10 00:57:50;;;;;;;21.00;16.03;;;;;;;;;;2080478;28;20185;-52
2021/10/10 00:58:50;;;;;;;19.80;15.30;;;;;;;;;;2075546;28;20197;-51
2021/10/10 00:59:51;;;;;;;18.87;16.67;;;;;;;;;;2078787;28;20664;-53
2021/10/10 01:00:52;;;;;;;21.33;17.03;;;;;;;;;;2072231;28;20403;-54
2021/10/10 01:01:53;;;;;;;24.67;20.57;;;;;;;;;;2074435;28;20205;-49
2021/10/10 01:02:57;;;;;;;23.30;17.03;;;;;;;;;;2083479;28;20176;-52
2021/10/10 01:03:57;;;;;;;20.60;16.33;;;;;;;;;;2087447;28;20176;-50
2021/10/10 01:04:57;;;;;;;20.70;15.67;;;;;;;;;;2085090;28;20172;-52
2021/10/10 01:05:58;;;;;;;20.67;16.07;;;;;;;;;;2083902;28;20556;-50
2021/10/10 01:07:00;;;;;;;20.40;15.07;;;;;;;;;;2088531;28;20328;-50
2021/10/10 01:08:00;;;;;;;20.50;16.40;;;;;;;;;;2083279;28;20203;-50
2021/10/10 01:09:01;;;;;;;20.20;18.07;;;;;;;;;;2079253;28;20189;-51
2021/10/10 01:10:01;;;;;;;23.30;18.40;;;;;;;;;;2078849;28;20176;-50
2021/10/10 01:11:02;;;;;;;20.63;17.03;;;;;;;;;;2080723;28;20176;-52
2021/10/10 01:12:03;;;;;;;20.05;15.80;;;;;;;;;;2082101;28;20211;-50
2021/10/10 01:13:04;;;;;;;17.83;15.93;;;;;;;;;;2083495;28;20183;-54
2021/10/10 01:14:04;;;;;;;20.87;16.87;;;;;;;;;;2072678;28;20216;-51
2021/10/10 01:15:06;;;;;;;19.63;17.23;;;;;;;;;;2070477;28;20228;-50
2021/10/10 01:16:06;;;;;;;19.47;17.13;;;;;;;;;;2081428;28;20173;-48
2021/10/10 01:17:07;;;;;;;22.33;16.90;;;;;;;;;;2072965;28;20236;-49
2021/10/10 01:18:07;;;;;;;18.70;15.90;;;;;;;;;;2072033;28;20177;-50
2021/10/10 01:19:07;;;;;;;22.70;16.67;;;;;;;;;;2075170;28;20180;-49
2021/10/10 01:20:10;;;;;;;21.37;16.73;;;;;;;;;;2077741;28;20181;-49
2021/10/10 01:21:10;;;;;;;20.40;16.70;;;;;;;;;;2077085;28;20173;-52
2021/10/10 01:22:10;;;;;;;22.13;16.53;;;;;;;;;;2079604;28;20203;-50
2021/10/10 01:23:11;;;;;;;19.40;16.10;;;;;;;;;;2075240;28;20653;-50
2021/10/10 01:24:11;;;;;;;17.83;15.60;;;;;;;;;;2074787;28;20173;-49
2021/10/10 01:25:11;;;;;;;20.03;15.73;;;;;;;;;;2074591;28;20181;-50
2021/10/10 01:26:12;;;;;;;18.67;15.53;;;;;;;;;;2075145;28;20173;-49
2021/10/10 01:27:12;;;;;;;21.53;16.40;;;;;;;;;;2065613;28;20216;-50
2021/10/10 01:28:13;;;;;;;19.40;17.30;;;;;;;;;;2068356;28;20244;-53
2021/10/10 01:29:13;;;;;;;20.27;17.00;;;;;;;;;;2078460;28;20639;-54
2021/10/10 01:30:13;;;;;;;21.70;17.47;;;;;;;;;;2079843;28;20256;-55
2021/10/10 01:31:13;;;;;;;20.57;17.27;;;;;;;;;;2078193;28;20311;-54
2021/10/10 01:32:14;;;;;;;20.93;16.77;;;;;;;;;;2078271;28;20204;-55
2021/10/10 01:33:14;;;;;;;20.03;17.30;;;;;;;;;;2078338;28;20176;-55
2021/10/10 01:34:15;;;;;;;20.57;17.43;;;;;;;;;;2076531;28;20232;-53
2021/10/10 01:35:15;;;;;;;22.07;18.37;;;;;;;;;;2079680;28;20176;-53
2021/10/10 01:36:16;;;;;;;21.37;16.53;;;;;;;;;;2077139;28;20180;-51
2021/10/10 01:37:16;;;;;;;20.93;16.83;;;;;;;;;;2080638;28;20219;-51
2021/10/10 01:38:17;;;;;;;21.93;16.97;;;;;;;;;;2078481;28;20200;-50
2021/10/10 01:39:18;;;;;;;22.23;16.37;;;;;;;;;;2081863;28;20176;-50
2021/10/10 01:40:19;;;;;;;21.97;17.60;;;;;;;;;;2067756;28;20399;-50
2021/10/10 01:41:19;;;;;;;20.50;17.17;;;;;;;;;;2069075;28;20201;-49
2021/10/10 01:42:19;;;;;;;19.03;16.47;;;;;;;;;;2074755;28;20700;-51
2021/10/10 01:43:19;;;;;;;18.60;16.57;;;;;;;;;;2078919;28;20640;-52
2021/10/10 01:44:19;;;;;;;19.30;16.27;;;;;;;;;;2075970;28;20185;-54
2021/10/10 01:45:21;;;;;;;20.10;17.37;;;;;;;;;;2067380;28;20186;-51
2021/10/10 01:46:22;;;;;;;19.17;17.10;;;;;;;;;;2070089;28;20239;-53
2021/10/10 01:47:22;;;;;;;22.03;17.37;;;;;;;;;;2072237;28;20252;-51
2021/10/10 01:48:22;;;;;;;19.20;16.80;;;;;;;;;;2069547;28;20177;-51
2021/10/10 01:49:22;;;;;;;21.73;17.40;;;;;;;;;;2067340;28;20264;-50
2021/10/10 01:50:23;;;;;;;21.77;16.90;;;;;;;;;;2078945;28;20168;-51
2021/10/10 01:51:23;;;;;;;20.27;16.63;;;;;;;;;;2067893;28;20192;-53
2021/10/10 01:52:23;;;;;;;21.77;16.60;;;;;;;;;;2062360;28;20277;-52
2021/10/10 01:53:23;;;;;;;24.87;18.67;;;;;;;;;;2067965;28;20177;-53
2021/10/10 01:54:24;;;;;;;19.57;17.03;;;;;;;;;;2076978;28;20168;-52
2021/10/10 01:55:25;;;;;;;21.73;17.63;;;;;;;;;;2075939;28;20987;-50
2021/10/10 01:56:27;;;;;;;24.63;17.10;;;;;;;;;;2074675;28;20185;-51
2021/10/10 01:57:27;;;;;;;19.87;17.27;;;;;;;;;;2080674;28;20172;-50
2021/10/10 01:58:28;;;;;;;23.80;18.83;;;;;;;;;;2078012;28;20176;-50
2021/10/10 01:59:28;;;;;;;25.90;18.60;;;;;;;;;;2076434;28;20711;-53
2021/10/10 02:00:33;;;;;;;24.80;18.53;;;;;;;;;;2078006;28;20165;-54
2021/10/10 02:01:33;;;;;;;23.77;17.50;;;;;;;;;;2077020;28;20592;-51
2021/10/10 02:02:34;;;;;;;21.70;17.63;;;;;;;;;;2065960;28;20192;-51
2021/10/10 02:03:34;;;;;;;24.07;18.63;;;;;;;;;;2064507;28;20654;-51
2021/10/10 02:04:34;;;;;;;22.93;18.53;;;;;;;;;;2076382;28;20172;-53
2021/10/10 02:05:35;;;;;;;20.20;17.70;;;;;;;;;;2076108;28;20712;-55
2021/10/10 02:06:35;;;;;;;21.03;16.77;;;;;;;;;;2076515;28;20184;-52
2021/10/10 02:07:36;;;;;;;19.67;17.37;;;;;;;;;;2068898;28;20261;-51
2021/10/10 02:08:36;;;;;;;23.60;18.57;;;;;;;;;;2060174;28;20280;-50
2021/10/10 02:09:37;;;;;;;21.43;17.90;;;;;;;;;;2061027;28;20192;-51
2021/10/10 02:10:37;;;;;;;21.97;17.30;;;;;;;;;;2068364;28;20260;-55
2021/10/10 02:11:37;;;;;;;22.90;18.53;;;;;;;;;;2069377;28;20181;-52
2021/10/10 02:12:38;;;;;;;19.87;16.67;;;;;;;;;;2068398;28;20237;-51
2021/10/10 02:13:38;;;;;;;21.07;17.83;;;;;;;;;;2069574;28;20170;-51
2021/10/10 02:14:38;;;;;;;20.47;17.80;;;;;;;;;;2068665;28;20188;-51
2021/10/10 02:15:39;;;;;;;21.30;17.23;;;;;;;;;;2076049;28;20193;-51
2021/10/10 02:16:39;;;;;;;21.57;17.40;;;;;;;;;;2077475;28;20263;-52
2021/10/10 02:17:39;;;;;;;24.20;18.47;;;;;;;;;;2076832;28;20172;-53
2021/10/10 02:18:40;;;;;;;23.27;18.43;;;;;;;;;;2076666;28;20176;-51
2021/10/10 02:19:40;;;;;;;21.80;18.33;;;;;;;;;;2076834;28;20656;-52
2021/10/10 02:20:41;;;;;;;22.10;18.47;;;;;;;;;;2078233;28;20191;-51
2021/10/10 02:21:41;;;;;;;26.60;19.20;;;;;;;;;;2077237;28;20195;-50
2021/10/10 02:22:41;;;;;;;22.43;19.07;;;;;;;;;;2080517;28;20219;-48
2021/10/10 02:23:42;;;;;;;23.77;18.07;;;;;;;;;;2076982;28;20187;-49
2021/10/10 02:24:42;;;;;;;21.50;18.70;;;;;;;;;;2078810;28;20176;-53
2021/10/10 02:25:42;;;;;;;25.43;18.53;;;;;;;;;;2077130;28;20188;-52
2021/10/10 02:26:43;;;;;;;20.57;17.80;;;;;;;;;;2078764;28;20173;-51
2021/10/10 02:27:45;;;;;;;20.70;17.37;;;;;;;;;;2074446;28;20191;-50
2021/10/10 02:28:45;;;;;;;22.10;17.43;;;;;;;;;;2070779;28;20184;-50
2021/10/10 02:29:45;;;;;;;22.03;17.50;;;;;;;;;;2076295;28;20173;-50
2021/10/10 02:30:47;;;;;;;20.53;16.87;;;;;;;;;;2078249;28;20161;-50
2021/10/10 02:31:48;;;;;;;19.57;17.13;;;;;;;;;;2067765;28;20239;-53
2021/10/10 02:32:48;;;;;;;27.47;18.40;;;;;;;;;;2075535;28;20203;-53
2021/10/10 02:33:50;;;;;;;24.50;18.83;;;;;;;;;;2078580;28;20165;-51
2021/10/10 02:34:50;;;;;;;21.93;18.17;;;;;;;;;;2071917;28;20235;-53
2021/10/10 02:35:50;;;;;;;20.90;18.37;;;;;;;;;;2072796;28;20165;-51
2021/10/10 02:36:50;;;;;;;21.43;19.13;;;;;;;;;;2062706;28;20185;-51
2021/10/10 02:37:50;;;;;;;20.83;17.17;;;;;;;;;;2081490;28;20164;-53
2021/10/10 02:38:51;;;;;;;21.30;17.70;;;;;;;;;;2064442;28;20276;-53
2021/10/10 02:39:52;;;;;;;22.50;18.37;;;;;;;;;;2072043;28;20187;-51
2021/10/10 02:40:52;;;;;;;22.07;18.70;;;;;;;;;;2073743;28;20212;-49
2021/10/10 02:41:53;;;;;;;23.97;17.73;;;;;;;;;;2076159;28;20197;-52
2021/10/10 02:42:53;;;;;;;22.73;18.90;;;;;;;;;;2075725;28;20169;-52
2021/10/10 02:43:53;;;;;;;23.03;18.70;;;;;;;;;;2080850;28;20240;-51
2021/10/10 02:44:53;;;;;;;25.47;18.93;;;;;;;;;;2070611;28;20206;-50
2021/10/10 02:45:54;;;;;;;24.57;18.40;;;;;;;;;;2080759;28;20172;-50
2021/10/10 02:46:54;;;;;;;21.00;18.30;;;;;;;;;;2073643;28;20181;-50
2021/10/10 02:47:54;;;;;;;23.10;18.90;;;;;;;;;;2072660;28;20174;-51
2021/10/10 02:48:56;;;;;;;23.37;17.67;;;;;;;;;;2079573;28;20221;-53
2021/10/10 02:49:56;;;;;;;23.80;17.80;;;;;;;;;;2073294;28;20188;-50
2021/10/10 02:50:56;;;;;;;22.70;18.47;;;;;;;;;;2079569;28;20214;-51
2021/10/10 02:51:56;;;;;;;21.40;17.90;;;;;;;;;;2069202;28;20220;-50
2021/10/10 02:52:58;;;;;;;21.23;18.53;;;;;;;;;;2066173;28;20193;-50
2021/10/10 02:54:02;;;;;;;20.53;17.87;;;;;;;;;;2062094;28;20186;-52
2021/10/10 02:55:02;;;;;;;22.27;19.17;;;;;;;;;;2079348;28;20191;-49
2021/10/10 02:56:02;;;;;;;23.70;19.57;;;;;;;;;;2065637;28;20178;-52
2021/10/10 02:57:03;;;;;;;22.80;19.23;;;;;;;;;;2070529;28;20169;-48
2021/10/10 02:58:03;;;;;;;22.40;18.07;;;;;;;;;;2068871;28;20189;-50
2021/10/10 02:59:03;;;;;;;26.77;18.60;;;;;;;;;;2078310;28;20168;-49
2021/10/10 03:00:04;;;;;;;23.03;19.40;;;;;;;;;;2066940;28;20184;-51
2021/10/10 03:01:05;;;;;;;24.73;18.70;;;;;;;;;;2071254;28;20208;-50
2021/10/10 03:02:05;;;;;;;20.73;17.57;;;;;;;;;;2069306;28;20189;-51
2021/10/10 03:03:05;;;;;;;23.10;18.53;;;;;;;;;;2071336;28;20239;-50
2021/10/10 03:04:05;;;;;;;19.97;17.57;;;;;;;;;;2069412;28;20217;-51
2021/10/10 03:05:06;;;;;;;23.57;19.33;;;;;;;;;;2076739;28;20169;-50
2021/10/10 03:06:07;;;;;;;22.67;19.60;;;;;;;;;;2069991;28;20646;-53
2021/10/10 03:07:07;;;;;;;22.87;19.70;;;;;;;;;;2077523;28;20168;-51
2021/10/10 03:08:08;;;;;;;23.80;19.40;;;;;;;;;;2075527;28;20203;-50
2021/10/10 03:09:08;;;;;;;22.73;18.30;;;;;;;;;;2080296;28;20216;-50
2021/10/10 03:10:08;;;;;;;23.70;20.07;;;;;;;;;;2077775;28;20204;-50
2021/10/10 03:11:09;;;;;;;20.93;17.50;;;;;;;;;;2072188;28;20264;-53
2021/10/10 03:12:09;;;;;;;26.23;19.57;;;;;;;;;;2072253;28;20235;-50
2021/10/10 03:13:10;;;;;;;24.77;19.53;;;;;;;;;;2059055;28;20210;-50
2021/10/10 03:14:10;;;;;;;24.03;18.47;;;;;;;;;;2060844;28;20233;-50
2021/10/10 03:15:11;;;;;;;22.63;19.33;;;;;;;;;;2071279;28;20548;-50
2021/10/10 03:16:12;;;;;;;24.63;20.10;;;;;;;;;;2077646;28;20169;-49
2021/10/10 03:17:12;;;;;;;25.00;20.53;;;;;;;;;;2066833;28;20185;-49
2021/10/10 03:18:12;;;;;;;21.80;19.37;;;;;;;;;;2068662;28;20601;-50
2021/10/10 03:19:13;;;;;;;21.57;19.30;;;;;;;;;;2074152;28;20171;-50
2021/10/10 03:20:14;;;;;;;23.07;19.97;;;;;;;;;;2076963;28;20200;-52
2021/10/10 03:21:14;;;;;;;22.17;19.23;;;;;;;;;;2073807;28;20192;-50
2021/10/10 03:22:14;;;;;;;24.57;19.70;;;;;;;;;;2076881;28;20207;-50
2021/10/10 03:23:15;;;;;;;22.43;18.93;;;;;;;;;;2069687;28;20175;-50
2021/10/10 03:24:15;;;;;;;25.27;19.93;;;;;;;;;;2063961;28;20178;-50
2021/10/10 03:25:15;;;;;;;23.13;18.83;;;;;;;;;;2066795;28;20181;-50
2021/10/10 03:26:15;;;;;;;23.03;19.70;;;;;;;;;;2077032;28;20172;-51
2021/10/10 03:27:15;;;;;;;25.67;19.77;;;;;;;;;;2072339;28;20254;-54
2021/10/10 03:28:16;;;;;;;23.80;20.17;;;;;;;;;;2078188;28;20188;-50
2021/10/10 03:29:16;;;;;;;24.47;20.07;;;;;;;;;;2075060;28;20489;-50
2021/10/10 03:30:16;;;;;;;23.77;19.30;;;;;;;;;;2078050;28;20230;-52
2021/10/10 03:31:16;;;;;;;22.63;18.17;;;;;;;;;;2068013;28;20162;-49
2021/10/10 03:32:17;;;;;;;21.37;18.37;;;;;;;;;;2055701;28;20240;-49
2021/10/10 03:33:17;;;;;;;24.17;18.60;;;;;;;;;;2063912;28;20252;-51
2021/10/10 03:34:17;;;;;;;25.53;20.53;;;;;;;;;;2072258;28;20203;-49
2021/10/10 03:35:17;;;;;;;24.57;19.60;;;;;;;;;;2068481;28;20165;-49
2021/10/10 03:36:18;;;;;;;23.33;19.70;;;;;;;;;;2068809;28;20196;-50
2021/10/10 03:37:18;;;;;;;23.10;18.87;;;;;;;;;;2076548;28;20185;-51
2021/10/10 03:38:18;;;;;;;21.27;18.53;;;;;;;;;;2076785;28;20188;-53
2021/10/10 03:39:19;;;;;;;22.83;19.40;;;;;;;;;;2076468;28;20177;-50
2021/10/10 03:40:19;;;;;;;23.33;17.93;;;;;;;;;;2073423;28;20212;-50
2021/10/10 03:41:19;;;;;;;25.50;19.10;;;;;;;;;;2076282;28;20185;-48
2021/10/10 03:42:19;;;;;;;21.07;17.77;;;;;;;;;;2086557;22;20208;-52
2021/10/10 03:43:19;;;;;;;22.40;19.10;;;;;;;;;;2076661;28;20668;-54
2021/10/10 03:44:20;;;;;;;21.13;18.10;;;;;;;;;;2080388;28;20179;-55
2021/10/10 03:45:20;;;;;;;20.97;17.87;;;;;;;;;;2089285;28;20587;-52
2021/10/10 03:46:20;;;;;;;21.97;18.03;;;;;;;;;;2084983;28;20657;-51
2021/10/10 03:47:21;;;;;;;20.90;18.57;;;;;;;;;;2084777;28;20219;-61
2021/10/10 03:48:23;;;;;;;23.50;18.10;;;;;;;;;;2093328;28;20170;-59
2021/10/10 03:49:23;;;;;;;21.73;18.33;;;;;;;;;;2091069;28;20226;-56
2021/10/10 03:50:24;;;;;;;21.37;18.90;;;;;;;;;;2080060;28;20175;-60
2021/10/10 03:51:24;;;;;;;18.53;16.63;;;;;;;;;;2081127;28;20190;-58
2021/10/10 03:52:25;;;;;;;19.77;17.70;;;;;;;;;;2083603;28;20203;-54
2021/10/10 03:53:37;;;;;;;21.30;18.20;;;;;;;;;;2082573;28;20562;-57
2021/10/10 03:55:58;;;;;;;25.43;17.50;;;;;;;;;;2067279;28;20197;-57
2021/10/10 03:56:59;;;;;;;22.07;18.50;;;;;;;;;;2084712;28;20659;-50
2021/10/10 03:57:59;;;;;;;22.27;17.83;;;;;;;;;;2081820;28;20552;-57
2021/10/10 03:58:59;;;;;;;22.97;18.20;;;;;;;;;;2088152;28;20175;-57
2021/10/10 04:00:03;;;;;;;22.77;19.03;;;;;;;;;;2074511;28;20219;-58
2021/10/10 04:01:12;;;;;;;21.70;17.33;;;;;;;;;;2085875;28;20184;-57
2021/10/10 04:02:12;;;;;;;23.57;18.30;;;;;;;;;;2081412;28;20597;-59
2021/10/10 04:03:13;;;;;;;20.37;18.33;;;;;;;;;;2081159;28;20179;-57
2021/10/10 04:04:13;;;;;;;22.10;18.83;;;;;;;;;;2081761;28;20176;-55
2021/10/10 04:06:20;;;;;;;22.63;18.47;;;;;;;;;;2083487;28;20226;-57
2021/10/10 04:07:20;;;;;;;22.20;19.10;;;;;;;;;;2085276;28;20250;-56
2021/10/10 04:08:21;;;;;;;21.33;17.67;;;;;;;;;;2087071;28;20179;-56
2021/10/10 04:09:21;;;;;;;21.60;18.07;;;;;;;;;;2084778;28;20172;-58
2021/10/10 04:10:21;;;;;;;22.20;17.97;;;;;;;;;;2081915;28;20191;-54
2021/10/10 04:11:21;;;;;;;21.90;18.57;;;;;;;;;;2076109;28;20185;-57
2021/10/10 04:12:22;;;;;;;22.97;17.97;;;;;;;;;;2078587;28;20242;-56
2021/10/10 04:13:22;;;;;;;19.60;17.50;;;;;;;;;;2086509;28;20510;-53
2021/10/10 04:14:22;;;;;;;20.60;18.50;;;;;;;;;;2090497;28;20187;-56
2021/10/10 04:15:22;;;;;;;21.63;18.43;;;;;;;;;;2088753;28;20176;-54
2021/10/10 04:16:23;;;;;;;22.23;19.33;;;;;;;;;;2086282;28;20260;-59
2021/10/10 04:17:23;;;;;;;22.00;19.07;;;;;;;;;;2087056;28;20184;-55
2021/10/10 04:18:23;;;;;;;20.87;18.37;;;;;;;;;;2090740;28;20627;-58
2021/10/10 04:19:23;;;;;;;22.40;18.43;;;;;;;;;;2088902;28;20672;-56
2021/10/10 04:20:24;;;;;;;20.70;17.37;;;;;;;;;;2081149;28;20609;-57
2021/10/10 04:21:24;;;;;;;20.97;17.93;;;;;;;;;;2086620;28;20175;-56
2021/10/10 04:22:24;;;;;;;24.13;17.93;;;;;;;;;;2082084;28;20196;-56
2021/10/10 04:23:24;;;;;;;20.70;18.50;;;;;;;;;;2079340;28;20180;-57
2021/10/10 04:24:25;;;;;;;20.73;18.40;;;;;;;;;;2098651;28;20175;-51
2021/10/10 04:25:25;;;;;;;21.13;18.70;;;;;;;;;;2086105;28;20175;-56
2021/10/10 04:26:25;;;;;;;21.57;18.47;;;;;;;;;;2089559;28;20187;-55
2021/10/10 04:27:26;;;;;;;20.73;18.33;;;;;;;;;;2087740;28;20203;-56
2021/10/10 04:28:26;;;;;;;24.23;19.47;;;;;;;;;;2091088;28;20533;-54
2021/10/10 04:29:27;;;;;;;27.50;18.97;;;;;;;;;;2087818;28;20596;-56
2021/10/10 04:30:27;;;;;;;21.27;17.87;;;;;;;;;;2087086;28;20740;-55
2021/10/10 04:31:27;;;;;;;22.70;18.97;;;;;;;;;;2085921;28;20182;-58
2021/10/10 04:32:27;;;;;;;22.17;19.13;;;;;;;;;;2086632;28;20690;-58
2021/10/10 04:33:28;;;;;;;24.33;18.70;;;;;;;;;;2084792;28;20659;-58
2021/10/10 04:34:28;;;;;;;22.50;19.03;;;;;;;;;;2083642;28;20180;-58
2021/10/10 04:35:28;;;;;;;23.77;18.40;;;;;;;;;;2084846;28;20687;-57
2021/10/10 04:36:29;;;;;;;22.53;18.47;;;;;;;;;;2083204;28;20179;-55
2021/10/10 04:37:29;;;;;;;26.20;18.23;;;;;;;;;;2085474;28;20654;-55
2021/10/10 04:38:29;;;;;;;22.80;18.80;;;;;;;;;;2090380;28;20429;-53
2021/10/10 04:39:29;;;;;;;20.67;18.33;;;;;;;;;;2083170;28;20181;-57
2021/10/10 04:40:30;;;;;;;23.13;18.67;;;;;;;;;;2084356;28;20167;-59
2021/10/10 04:41:30;;;;;;;20.73;18.53;;;;;;;;;;2080676;28;20185;-59
2021/10/10 04:42:32;;;;;;;22.43;18.50;;;;;;;;;;2085287;28;20229;-59
2021/10/10 04:43:32;;;;;;;22.07;18.63;;;;;;;;;;2079814;28;20191;-57
2021/10/10 04:44:33;;;;;;;20.20;17.87;;;;;;;;;;2086228;28;20533;-54
2021/10/10 04:45:33;;;;;;;23.20;19.23;;;;;;;;;;2078662;28;20191;-57
2021/10/10 04:46:33;;;;;;;22.73;19.33;;;;;;;;;;2080690;28;20553;-58
2021/10/10 04:47:34;;;;;;;21.63;18.97;;;;;;;;;;2082232;28;20655;-57
2021/10/10 04:48:34;;;;;;;23.37;18.27;;;;;;;;;;2081596;28;20644;-58
2021/10/10 04:49:34;;;;;;;23.13;18.93;;;;;;;;;;2088052;28;20249;-58
2021/10/10 04:50:34;;;;;;;21.60;19.30;;;;;;;;;;2078091;28;20211;-56
2021/10/10 04:51:35;;;;;;;25.10;18.90;;;;;;;;;;2081657;28;20177;-61
2021/10/10 04:52:35;;;;;;;22.47;17.97;;;;;;;;;;2091425;28;20199;-58
2021/10/10 04:53:35;;;;;;;21.97;18.47;;;;;;;;;;2096767;28;20178;-61
2021/10/10 04:54:35;;;;;;;20.20;18.00;;;;;;;;;;2086049;28;20169;-58
2021/10/10 04:55:36;;;;;;;28.80;18.53;;;;;;;;;;2095588;28;20199;-56
2021/10/10 04:56:36;;;;;;;20.67;18.27;;;;;;;;;;2089694;28;20174;-56
2021/10/10 04:57:36;;;;;;;21.80;18.23;;;;;;;;;;2091064;28;20192;-56
2021/10/10 04:58:36;;;;;;;20.63;18.07;;;;;;;;;;2089495;28;20266;-57
2021/10/10 04:59:36;;;;;;;22.93;18.90;;;;;;;;;;2083353;28;20176;-56
2021/10/10 05:00:37;;;;;;;24.87;17.90;;;;;;;;;;2082517;28;20625;-55
2021/10/10 05:01:37;;;;;;;24.07;19.60;;;;;;;;;;2081068;28;20196;-51
2021/10/10 05:02:37;;;;;;;21.37;19.17;;;;;;;;;;2089090;28;20203;-57
2021/10/10 05:03:37;;;;;;;21.00;17.17;;;;;;;;;;2089738;28;20221;-55
2021/10/10 05:04:38;;;;;;;21.50;18.27;;;;;;;;;;2087534;28;20600;-51
2021/10/10 05:05:41;;;;;;;22.47;19.63;;;;;;;;;;2088126;28;20216;-57
2021/10/10 05:06:41;;;;;;;23.70;18.93;;;;;;;;;;2089079;28;20190;-60
2021/10/10 05:07:42;;;;;;;22.53;19.73;;;;;;;;;;2086162;28;20262;-57
2021/10/10 05:08:42;;;;;;;25.27;19.17;;;;;;;;;;2077938;28;20581;-59
2021/10/10 05:09:42;;;;;;;24.80;20.00;;;;;;;;;;2081175;28;20687;-58
2021/10/10 05:10:42;;;;;;;23.33;18.97;;;;;;;;;;2090069;28;20536;-56
2021/10/10 05:11:43;;;;;;;22.13;18.80;;;;;;;;;;2082096;28;20318;-54
2021/10/10 05:12:43;;;;;;;22.33;19.90;;;;;;;;;;2081586;28;20220;-56
2021/10/10 05:13:43;;;;;;;23.70;20.17;;;;;;;;;;2082319;28;20199;-57
2021/10/10 05:14:43;;;;;;;22.50;18.30;;;;;;;;;;2081645;28;20176;-54
2021/10/10 05:15:43;;;;;;;21.10;18.87;;;;;;;;;;2081394;28;20234;-54
2021/10/10 05:16:44;;;;;;;20.97;17.60;;;;;;;;;;2082479;28;20184;-55
2021/10/10 05:17:44;;;;;;;22.33;19.83;;;;;;;;;;2081638;28;20544;-58
2021/10/10 05:18:44;;;;;;;22.33;18.27;;;;;;;;;;2081295;28;20169;-58
2021/10/10 05:19:44;;;;;;;24.93;19.77;;;;;;;;;;2080971;28;20184;-58
2021/10/10 05:20:45;;;;;;;28.17;20.63;;;;;;;;;;2081865;28;20230;-56
2021/10/10 05:21:45;;;;;;;25.20;19.87;;;;;;;;;;2081783;28;20202;-56
2021/10/10 05:22:45;;;;;;;22.53;19.23;;;;;;;;;;2081433;28;20654;-57
2021/10/10 05:23:45;;;;;;;24.73;19.90;;;;;;;;;;2081433;28;20190;-53
2021/10/10 05:24:46;;;;;;;21.97;18.83;;;;;;;;;;2081692;28;20203;-57
2021/10/10 05:25:46;;;;;;;23.27;20.07;;;;;;;;;;2081189;28;20374;-56
2021/10/10 05:26:46;;;;;;;23.63;18.57;;;;;;;;;;2081838;28;20230;-54
2021/10/10 05:27:46;;;;;;;23.43;18.67;;;;;;;;;;2082029;28;20192;-57
2021/10/10 05:28:47;;;;;;;21.23;18.93;;;;;;;;;;2081660;28;20184;-58
2021/10/10 05:29:47;;;;;;;20.37;18.17;;;;;;;;;;2081624;28;20255;-59
2021/10/10 05:30:47;;;;;;;19.93;17.83;;;;;;;;;;2081103;28;20214;-56
2021/10/10 05:31:47;;;;;;;19.80;17.70;;;;;;;;;;2082014;28;20172;-57
2021/10/10 05:32:48;;;;;;;23.53;18.53;;;;;;;;;;2085147;28;20298;-55
2021/10/10 05:33:49;;;;;;;19.77;17.53;;;;;;;;;;2073656;28;20181;-57
2021/10/10 05:34:49;;;;;;;22.73;18.60;;;;;;;;;;2084080;28;20714;-56
2021/10/10 05:35:49;;;;;;;21.27;18.97;;;;;;;;;;2089112;28;20176;-57
2021/10/10 05:36:50;;;;;;;24.57;18.80;;;;;;;;;;2069528;28;20276;-55
2021/10/10 05:37:50;;;;;;;22.40;19.80;;;;;;;;;;2088972;28;20228;-54
2021/10/10 05:38:50;;;;;;;26.80;19.67;;;;;;;;;;2083402;28;20192;-55
2021/10/10 05:39:50;;;;;;;25.07;20.10;;;;;;;;;;2089742;28;20682;-59
2021/10/10 05:40:51;;;;;;;25.27;20.17;;;;;;;;;;2081669;28;20227;-56
2021/10/10 05:41:51;;;;;;;25.17;20.90;;;;;;;;;;2082196;28;20696;-57
2021/10/10 05:42:51;;;;;;;25.57;21.13;;;;;;;;;;2082971;28;20302;-55
2021/10/10 05:43:51;;;;;;;22.57;19.83;;;;;;;;;;2090008;28;20167;-56
2021/10/10 05:44:52;;;;;;;24.70;19.00;;;;;;;;;;2089750;28;20675;-57
2021/10/10 05:45:52;;;;;;;22.47;19.30;;;;;;;;;;2076075;28;20212;-57
2021/10/10 05:46:52;;;;;;;25.40;19.10;;;;;;;;;;2089355;28;20194;-55
2021/10/10 05:47:52;;;;;;;23.57;20.17;;;;;;;;;;2088448;28;20199;-57
2021/10/10 05:48:53;;;;;;;23.80;19.97;;;;;;;;;;2080358;28;20235;-56
2021/10/10 05:49:53;;;;;;;22.97;19.17;;;;;;;;;;2089494;28;20167;-59
2021/10/10 05:50:53;;;;;;;26.53;20.93;;;;;;;;;;2088824;28;20156;-55
2021/10/10 05:51:53;;;;;;;22.83;20.43;;;;;;;;;;2080563;28;20175;-52
2021/10/10 05:52:54;;;;;;;25.03;20.93;;;;;;;;;;2082137;28;20784;-55
2021/10/10 05:53:54;;;;;;;24.90;20.30;;;;;;;;;;2088841;28;20155;-53